createdAt,value
2018-11-29T00:00:41.431Z,22.33
2018-11-29T00:03:11.286Z,15.97
2018-11-29T00:05:39.855Z,16.35
2018-11-29T00:08:08.620Z,20.17
2018-11-29T00:10:37.114Z,17.53
2018-11-29T00:13:05.831Z,22.23
2018-11-29T00:15:34.843Z,20.10
2018-11-29T00:18:03.381Z,23.03
2018-11-29T00:20:32.394Z,19.27
2018-11-29T00:23:00.723Z,17.87
2018-11-29T00:25:28.851Z,22.27
2018-11-29T00:27:56.934Z,19.67
2018-11-29T00:30:26.019Z,22.27
2018-11-29T00:32:55.174Z,19.10
2018-11-29T00:35:24.446Z,21.77
2018-11-29T00:37:52.631Z,28.20
2018-11-29T00:40:22.881Z,22.20
2018-11-29T00:42:51.315Z,20.00
2018-11-29T00:45:22.309Z,25.30
2018-11-29T00:47:50.591Z,23.47
2018-11-29T00:50:19.627Z,22.20
2018-11-29T00:52:48.697Z,22.40
2018-11-29T00:55:19.775Z,25.17
2018-11-29T00:57:47.939Z,24.80
2018-11-29T01:00:19.007Z,21.43
2018-11-29T01:02:47.453Z,19.35
2018-11-29T01:05:15.638Z,25.20
2018-11-29T01:07:43.981Z,26.13
2018-11-29T01:10:13.767Z,27.17
2018-11-29T01:12:42.872Z,21.67
2018-11-29T01:15:18.071Z,24.30
2018-11-29T01:17:48.286Z,22.47
2018-11-29T01:20:17.791Z,26.20
2018-11-29T01:22:46.371Z,28.53
2018-11-29T01:25:15.286Z,26.17
2018-11-29T01:27:46.377Z,23.30
2018-11-29T01:30:15.947Z,26.10
2018-11-29T01:32:44.403Z,30.17
2018-11-29T01:35:17.504Z,24.90
2018-11-29T01:37:46.231Z,28.17
2018-11-29T01:40:18.868Z,25.93
2018-11-29T01:42:49.308Z,23.40
2018-11-29T01:45:17.473Z,25.90
2018-11-29T01:47:46.245Z,28.03
2018-11-29T01:50:14.855Z,22.80
2018-11-29T01:52:44.451Z,22.48
2018-11-29T01:55:13.259Z,23.23
2018-11-29T01:57:41.321Z,24.27
2018-11-29T02:00:12.330Z,25.43
2018-11-29T02:02:40.523Z,21.17
2018-11-29T02:05:10.068Z,23.30
2018-11-29T02:07:38.746Z,20.62
2018-11-29T02:10:16.831Z,22.17
2018-11-29T02:12:46.015Z,27.93
2018-11-29T02:15:14.351Z,21.90
2018-11-29T02:17:44.107Z,24.35
2018-11-29T02:20:16.423Z,18.40
2018-11-29T02:22:44.555Z,15.80
2018-11-29T02:25:13.499Z,25.67
2018-11-29T02:27:42.451Z,27.57
2018-11-29T02:30:14.620Z,20.80
2018-11-29T02:32:43.092Z,25.27
2018-11-29T02:35:11.711Z,20.30
2018-11-29T02:37:40.735Z,26.90
2018-11-29T02:40:11.763Z,26.00
2018-11-29T02:42:41.014Z,25.13
2018-11-29T02:45:12.039Z,23.13
2018-11-29T02:47:41.011Z,26.25
2018-11-29T02:50:10.051Z,20.13
2018-11-29T02:52:38.672Z,21.40
2018-11-29T02:55:08.859Z,22.43
2018-11-29T02:57:38.401Z,24.83
2018-11-29T03:00:15.144Z,27.80
2018-11-29T03:02:43.247Z,23.10
2018-11-29T03:05:11.695Z,25.63
2018-11-29T03:07:42.228Z,30.27
2018-11-29T03:10:11.664Z,21.60
2018-11-29T03:12:42.178Z,25.67
2018-11-29T03:15:13.379Z,29.03
2018-11-29T03:17:45.539Z,25.43
2018-11-29T03:20:14.556Z,29.40
2018-11-29T03:22:43.353Z,25.47
2018-11-29T03:25:13.750Z,27.43
2018-11-29T03:27:43.143Z,26.35
2018-11-29T03:30:24.340Z,27.80
2018-11-29T03:32:52.510Z,28.37
2018-11-29T03:35:21.116Z,31.83
2018-11-29T03:37:49.539Z,26.77
2018-11-29T03:40:17.774Z,27.13
2018-11-29T03:42:46.303Z,29.97
2018-11-29T03:45:15.868Z,31.30
2018-11-29T03:47:44.405Z,26.93
2018-11-29T03:50:14.363Z,30.17
2018-11-29T03:52:44.244Z,36.40
2018-11-29T03:55:12.776Z,26.47
2018-11-29T03:57:41.279Z,32.67
2018-11-29T04:00:15.442Z,30.83
2018-11-29T04:02:44.456Z,34.97
2018-11-29T04:05:13.538Z,34.47
2018-11-29T04:08:46.190Z,31.00
2018-11-29T04:11:14.331Z,32.10
2018-11-29T04:13:43.139Z,29.63
2018-11-29T04:16:11.212Z,37.60
2018-11-29T04:18:39.527Z,32.33
2018-11-29T04:21:07.780Z,34.03
2018-11-29T04:23:36.575Z,32.95
2018-11-29T04:26:05.325Z,37.30
2018-11-29T04:28:33.491Z,37.47
2018-11-29T04:31:02.172Z,28.83
2018-11-29T04:33:30.535Z,37.60
2018-11-29T04:35:58.736Z,35.73
2018-11-29T04:39:30.339Z,39.65
2018-11-29T04:41:58.468Z,30.27
2018-11-29T04:44:26.571Z,33.33
2018-11-29T04:46:55.511Z,39.77
2018-11-29T04:49:23.860Z,34.80
2018-11-29T04:51:52.131Z,30.33
2018-11-29T04:54:21.278Z,35.23
2018-11-29T04:56:49.395Z,36.00
2018-11-29T04:59:17.456Z,37.90
2018-11-29T05:01:46.212Z,35.70
2018-11-29T05:04:15.625Z,27.30
2018-11-29T05:06:44.923Z,37.03
2018-11-29T05:09:13.039Z,37.67
2018-11-29T05:11:41.215Z,35.33
2018-11-29T05:14:09.316Z,35.47
2018-11-29T05:16:38.399Z,35.83
2018-11-29T05:19:06.563Z,32.30
2018-11-29T05:21:34.891Z,39.87
2018-11-29T05:24:03.204Z,36.77
2018-11-29T05:26:31.423Z,42.33
2018-11-29T05:29:00.023Z,38.80
2018-11-29T05:31:28.143Z,26.78
2018-11-29T05:33:56.851Z,39.57
2018-11-29T05:36:25.516Z,36.90
2018-11-29T05:38:53.663Z,36.63
2018-11-29T05:41:24.043Z,41.80
2018-11-29T05:43:52.190Z,43.20
2018-11-29T05:46:20.750Z,39.83
2018-11-29T05:48:50.071Z,42.53
2018-11-29T05:51:18.681Z,42.57
2018-11-29T05:53:46.847Z,35.37
2018-11-29T05:56:15.039Z,41.37
2018-11-29T05:58:43.448Z,39.23
2018-11-29T06:01:14.778Z,38.63
2018-11-29T06:03:43.255Z,31.57
2018-11-29T06:06:11.481Z,31.10
2018-11-29T06:08:39.961Z,38.78
2018-11-29T06:11:08.078Z,36.73
2018-11-29T06:13:36.831Z,37.95
2018-11-29T06:16:05.381Z,35.33
2018-11-29T06:18:34.771Z,38.80
2018-11-29T06:21:03.980Z,43.67
2018-11-29T06:23:32.063Z,44.03
2018-11-29T06:26:00.938Z,43.07
2018-11-29T06:28:29.207Z,40.95
2018-11-29T06:30:57.899Z,37.43
2018-11-29T06:33:26.203Z,42.13
2018-11-29T06:35:54.327Z,43.30
2018-11-29T06:38:22.533Z,42.03
2018-11-29T06:40:51.723Z,46.23
2018-11-29T06:43:19.930Z,46.70
2018-11-29T06:45:48.030Z,37.53
2018-11-29T06:48:16.964Z,40.80
2018-11-29T06:50:45.111Z,42.00
2018-11-29T06:53:19.679Z,41.97
2018-11-29T06:55:47.747Z,38.17
2018-11-29T06:58:16.911Z,41.30
2018-11-29T07:00:44.675Z,35.07
2018-11-29T07:03:12.765Z,40.40
2018-11-29T07:05:41.411Z,40.30
2018-11-29T07:08:09.733Z,37.97
2018-11-29T07:10:37.975Z,40.60
2018-11-29T07:13:07.121Z,40.53
2018-11-29T07:15:35.280Z,42.50
2018-11-29T07:18:03.540Z,37.67
2018-11-29T07:20:31.692Z,52.00
2018-11-29T07:23:00.478Z,48.30
2018-11-29T07:25:28.639Z,45.00
2018-11-29T07:27:56.919Z,43.77
2018-11-29T07:30:25.692Z,38.73
2018-11-29T07:32:53.892Z,42.60
2018-11-29T07:35:22.867Z,47.13
2018-11-29T07:37:51.149Z,39.90
2018-11-29T07:40:19.585Z,46.83
2018-11-29T07:42:50.299Z,37.93
2018-11-29T07:45:19.547Z,45.37
2018-11-29T07:47:49.169Z,44.33
2018-11-29T07:50:21.859Z,40.33
2018-11-29T07:52:52.204Z,39.63
2018-11-29T07:55:21.193Z,40.57
2018-11-29T07:57:50.566Z,46.13
2018-11-29T08:00:19.094Z,42.00
2018-11-29T08:02:47.159Z,45.53
2018-11-29T08:05:15.803Z,38.93
2018-11-29T08:07:48.384Z,52.33
2018-11-29T08:10:17.886Z,36.60
2018-11-29T08:12:46.546Z,46.23
2018-11-29T08:15:16.369Z,49.63
2018-11-29T08:17:44.685Z,49.17
2018-11-29T08:20:15.177Z,30.53
2018-11-29T08:22:46.675Z,45.73
2018-11-29T08:25:14.933Z,36.77
2018-11-29T08:27:43.171Z,41.60
2018-11-29T08:30:14.091Z,45.47
2018-11-29T08:32:42.263Z,41.60
2018-11-29T08:35:11.431Z,41.30
2018-11-29T08:37:40.927Z,40.63
2018-11-29T08:40:11.509Z,36.83
2018-11-29T08:42:39.587Z,38.60
2018-11-29T08:45:09.627Z,40.07
2018-11-29T08:47:38.071Z,40.07
2018-11-29T08:50:08.318Z,40.73
2018-11-29T08:52:36.658Z,46.57
2018-11-29T08:55:06.112Z,46.07
2018-11-29T08:57:34.223Z,47.00
2018-11-29T09:00:02.468Z,47.97
2018-11-29T09:02:30.942Z,33.33
2018-11-29T09:04:59.255Z,40.97
2018-11-29T09:07:27.561Z,40.00
2018-11-29T09:09:55.692Z,38.80
2018-11-29T09:12:23.865Z,43.47
2018-11-29T09:14:52.017Z,42.40
2018-11-29T09:17:21.189Z,36.20
2018-11-29T09:19:49.565Z,41.40
2018-11-29T09:22:18.007Z,43.10
2018-11-29T09:24:46.352Z,38.00
2018-11-29T09:27:14.644Z,36.10
2018-11-29T09:29:43.193Z,40.67
2018-11-29T09:32:11.548Z,41.23
2018-11-29T09:34:42.160Z,37.80
2018-11-29T09:37:10.923Z,35.10
2018-11-29T09:39:39.116Z,29.13
2018-11-29T09:42:07.303Z,34.13
2018-11-29T09:44:35.427Z,31.57
2018-11-29T09:47:03.497Z,31.13
2018-11-29T09:49:31.591Z,33.57
2018-11-29T09:52:00.291Z,37.77
2018-11-29T09:54:28.444Z,31.20
2018-11-29T09:56:56.701Z,38.07
2018-11-29T09:59:24.888Z,32.47
2018-11-29T10:01:53.271Z,38.33
2018-11-29T10:04:21.656Z,29.97
2018-11-29T10:06:49.835Z,32.90
2018-11-29T10:09:18.725Z,26.10
2018-11-29T10:11:46.873Z,32.57
2018-11-29T10:14:15.988Z,34.60
2018-11-29T10:16:44.176Z,34.83
2018-11-29T10:19:12.972Z,31.87
2018-11-29T10:21:41.122Z,24.23
2018-11-29T10:24:09.295Z,29.47
2018-11-29T10:26:37.659Z,35.45
2018-11-29T10:29:05.900Z,30.53
2018-11-29T10:31:34.072Z,32.80
2018-11-29T10:34:03.509Z,32.37
2018-11-29T10:36:31.584Z,36.47
2018-11-29T10:39:00.919Z,32.43
2018-11-29T10:41:30.334Z,33.23
2018-11-29T10:43:57.915Z,35.70
2018-11-29T10:46:26.071Z,33.60
2018-11-29T10:48:54.671Z,31.17
2018-11-29T10:51:23.204Z,34.60
2018-11-29T10:53:51.063Z,31.83
2018-11-29T10:56:19.488Z,33.87
2018-11-29T10:58:48.335Z,32.03
2018-11-29T11:01:22.048Z,30.60
2018-11-29T11:03:50.541Z,31.87
2018-11-29T11:06:18.712Z,28.30
2018-11-29T11:08:47.391Z,33.93
2018-11-29T11:11:15.538Z,29.20
2018-11-29T11:13:44.348Z,30.37
2018-11-29T11:16:13.481Z,31.73
2018-11-29T11:18:42.956Z,35.90
2018-11-29T11:21:11.127Z,31.83
2018-11-29T11:23:39.432Z,28.87
2018-11-29T11:26:08.108Z,36.40
2018-11-29T11:28:37.067Z,35.03
2018-11-29T11:31:06.287Z,27.63
2018-11-29T11:33:35.364Z,32.27
2018-11-29T11:36:03.879Z,31.20
2018-11-29T11:38:32.024Z,26.77
2018-11-29T11:41:00.928Z,30.50
2018-11-29T11:43:29.139Z,34.48
2018-11-29T11:45:57.420Z,27.60
2018-11-29T11:48:26.143Z,33.93
2018-11-29T11:50:54.345Z,28.20
2018-11-29T11:53:22.519Z,37.57
2018-11-29T11:55:53.755Z,32.80
2018-11-29T11:58:20.571Z,34.87
2018-11-29T12:00:49.483Z,21.70
2018-11-29T12:03:17.912Z,33.97
2018-11-29T12:05:47.376Z,26.53
2018-11-29T12:08:16.088Z,28.43
2018-11-29T12:10:44.235Z,37.27
2018-11-29T12:13:13.132Z,27.43
2018-11-29T12:15:41.302Z,29.50
2018-11-29T12:18:12.743Z,30.00
2018-11-29T12:20:41.093Z,27.47
2018-11-29T12:23:09.469Z,24.97
2018-11-29T12:25:38.174Z,25.77
2018-11-29T12:28:06.529Z,28.77
2018-11-29T12:30:36.695Z,27.37
2018-11-29T12:33:06.997Z,26.97
2018-11-29T12:35:35.249Z,28.17
2018-11-29T12:38:03.392Z,27.67
2018-11-29T12:40:32.470Z,23.10
2018-11-29T12:43:01.704Z,26.87
2018-11-29T12:45:29.812Z,28.00
2018-11-29T12:47:59.337Z,28.87
2018-11-29T12:50:27.702Z,25.87
2018-11-29T12:52:55.973Z,22.67
2018-11-29T12:55:25.999Z,23.70
2018-11-29T12:58:05.280Z,25.90
2018-11-29T13:00:24.324Z,24.13
2018-11-29T13:03:01.001Z,22.77
2018-11-29T13:05:29.303Z,28.77
2018-11-29T13:07:58.143Z,25.03
2018-11-29T13:10:27.288Z,26.90
2018-11-29T13:12:56.109Z,24.60
2018-11-29T13:15:26.674Z,27.33
2018-11-29T13:17:55.767Z,27.80
2018-11-29T13:20:23.812Z,32.43
2018-11-29T13:22:52.611Z,25.43
2018-11-29T13:25:21.865Z,26.20
2018-11-29T13:27:50.725Z,22.93
2018-11-29T13:30:20.705Z,26.20
2018-11-29T13:32:49.955Z,26.00
2018-11-29T13:35:21.312Z,28.70
2018-11-29T13:37:51.952Z,28.03
2018-11-29T13:40:20.067Z,24.57
2018-11-29T13:42:48.500Z,25.30
2018-11-29T13:45:18.176Z,28.77
2018-11-29T13:47:46.739Z,27.30
2018-11-29T13:50:16.556Z,29.73
2018-11-29T13:52:44.757Z,29.60
2018-11-29T13:55:13.849Z,30.13
2018-11-29T13:57:42.912Z,22.93
2018-11-29T14:00:16.426Z,27.67
2018-11-29T14:02:47.104Z,25.47
2018-11-29T14:05:14.838Z,27.33
2018-11-29T14:07:44.223Z,30.32
2018-11-29T14:10:16.509Z,30.97
2018-11-29T14:12:45.291Z,28.83
2018-11-29T14:15:15.773Z,28.67
2018-11-29T14:17:45.140Z,21.43
2018-11-29T14:20:13.832Z,22.23
2018-11-29T14:22:42.509Z,28.50
2018-11-29T14:25:12.584Z,21.20
2018-11-29T14:27:41.424Z,23.95
2018-11-29T14:30:29.992Z,24.03
2018-11-29T14:32:59.235Z,27.10
2018-11-29T14:35:27.355Z,24.60
2018-11-29T14:37:56.203Z,23.93
2018-11-29T14:40:26.755Z,24.67
2018-11-29T14:42:54.875Z,30.03
2018-11-29T14:45:25.055Z,25.03
2018-11-29T14:48:24.076Z,26.27
2018-11-29T14:50:52.773Z,21.93
2018-11-29T14:53:21.799Z,22.37
2018-11-29T14:55:50.560Z,20.80
2018-11-29T14:58:19.866Z,24.35
2018-11-29T15:00:47.216Z,20.17
2018-11-29T15:03:16.859Z,21.00
2018-11-29T15:05:46.131Z,18.80
2018-11-29T15:08:14.919Z,22.53
2018-11-29T15:10:43.056Z,20.02
2018-11-29T15:13:13.012Z,19.67
2018-11-29T15:15:41.923Z,14.15
2018-11-29T15:18:12.412Z,19.33
2018-11-29T15:24:14.607Z,18.37
2018-11-29T15:26:43.746Z,16.53
2018-11-29T15:29:12.471Z,20.63
2018-11-29T15:31:40.679Z,20.47
2018-11-29T15:34:09.579Z,17.07
2018-11-29T15:36:37.723Z,22.90
2018-11-29T15:39:08.179Z,19.90
2018-11-29T15:41:36.583Z,21.33
2018-11-29T15:44:05.260Z,18.23
2018-11-29T15:46:33.352Z,18.23
2018-11-29T15:49:01.627Z,19.50
2018-11-29T15:51:34.205Z,18.13
2018-11-29T15:54:03.071Z,13.23
2018-11-29T15:56:32.431Z,15.00
2018-11-29T15:59:01.057Z,14.87
2018-11-29T16:01:29.262Z,16.83
2018-11-29T16:03:58.543Z,13.57
2018-11-29T16:06:26.956Z,17.55
2018-11-29T16:08:56.759Z,15.53
2018-11-29T16:11:25.047Z,14.20
2018-11-29T16:13:52.999Z,13.50
2018-11-29T16:16:21.431Z,13.97
2018-11-29T16:18:50.867Z,15.73
2018-11-29T16:21:18.933Z,16.40
2018-11-29T16:23:48.111Z,12.27
2018-11-29T16:26:16.980Z,15.00
2018-11-29T16:28:45.036Z,9.87
2018-11-29T16:31:13.247Z,11.93
2018-11-29T16:33:42.207Z,17.73
2018-11-29T16:36:10.687Z,10.60
2018-11-29T16:38:38.956Z,16.10
2018-11-29T16:41:07.231Z,17.30
2018-11-29T16:43:35.983Z,16.25
2018-11-29T16:46:07.344Z,13.77
2018-11-29T16:48:35.466Z,13.40
2018-11-29T16:51:03.831Z,17.10
2018-11-29T16:53:32.035Z,13.13
2018-11-29T16:56:00.199Z,16.43
2018-11-29T16:58:29.947Z,13.83
2018-11-29T17:00:59.951Z,13.60
2018-11-29T17:03:28.011Z,14.60
2018-11-29T17:05:56.195Z,11.22
2018-11-29T17:08:24.313Z,13.00
2018-11-29T17:10:52.511Z,11.87
2018-11-29T17:13:21.156Z,10.57
2018-11-29T17:15:49.716Z,16.00
2018-11-29T17:18:17.815Z,14.17
2018-11-29T17:20:46.648Z,11.60
2018-11-29T17:23:14.921Z,10.20
2018-11-29T17:25:43.647Z,9.63
2018-11-29T17:28:12.552Z,12.83
2018-11-29T17:30:41.931Z,11.77
2018-11-29T17:33:10.011Z,13.50
2018-11-29T17:35:38.301Z,18.03
2018-11-29T17:38:06.725Z,12.03
2018-11-29T17:40:35.790Z,16.60
2018-11-29T17:43:04.279Z,11.60
2018-11-29T17:45:32.579Z,11.50
2018-11-29T17:48:02.255Z,12.30
2018-11-29T17:50:35.163Z,12.00
2018-11-29T17:53:03.667Z,13.97
2018-11-29T17:55:32.362Z,11.48
2018-11-29T17:58:00.615Z,11.60
2018-11-29T18:00:30.577Z,12.80
2018-11-29T18:02:58.694Z,15.10
2018-11-29T18:05:26.840Z,14.10
2018-11-29T18:07:55.906Z,12.60
2018-11-29T18:10:29.776Z,14.53
2018-11-29T18:13:00.951Z,16.03
2018-11-29T18:15:30.790Z,11.30
2018-11-29T18:17:59.850Z,13.00
2018-11-29T18:20:28.066Z,12.10
2018-11-29T18:22:56.268Z,13.30
2018-11-29T18:25:24.863Z,16.50
2018-11-29T18:27:53.631Z,10.83
2018-11-29T18:30:22.399Z,11.13
2018-11-29T18:32:50.767Z,13.93
2018-11-29T18:35:18.839Z,11.00
2018-11-29T18:37:46.999Z,10.70
2018-11-29T18:40:17.431Z,13.73
2018-11-29T18:42:46.808Z,11.73
2018-11-29T18:45:16.920Z,13.40
2018-11-29T18:47:46.054Z,12.33
2018-11-29T18:50:21.132Z,16.23
2018-11-29T18:52:49.421Z,10.63
2018-11-29T18:55:24.404Z,14.00
2018-11-29T18:57:53.010Z,11.53
2018-11-29T19:00:25.998Z,8.77
2018-11-29T19:02:56.935Z,16.07
2018-11-29T19:05:23.463Z,11.70
2018-11-29T19:07:52.443Z,12.37
2018-11-29T19:10:21.891Z,10.20
2018-11-29T19:12:56.071Z,13.87
2018-11-29T19:15:24.489Z,8.97
2018-11-29T19:17:52.803Z,14.77
2018-11-29T19:20:21.375Z,13.53
2018-11-29T19:22:50.236Z,11.90
2018-11-29T19:27:59.303Z,11.83
2018-11-29T19:30:29.443Z,10.58
2018-11-29T19:33:17.130Z,12.17
2018-11-29T19:35:42.191Z,13.40
2018-11-29T19:38:10.339Z,10.63
2018-11-29T19:40:38.395Z,8.70
2018-11-29T19:43:07.515Z,10.63
2018-11-29T19:45:35.608Z,15.90
2018-11-29T19:48:03.720Z,12.83
2018-11-29T19:50:32.262Z,10.50
2018-11-29T19:53:01.420Z,10.23
2018-11-29T19:55:31.211Z,11.65
2018-11-29T19:57:59.611Z,8.77
2018-11-29T20:00:28.983Z,12.60
2018-11-29T20:02:57.349Z,12.73
2018-11-29T20:05:25.457Z,9.20
2018-11-29T20:07:53.631Z,10.80
2018-11-29T20:10:22.294Z,10.77
2018-11-29T20:12:57.981Z,9.60
2018-11-29T20:18:57.247Z,7.43
2018-11-29T20:21:25.343Z,9.80
2018-11-29T20:23:53.511Z,8.17
2018-11-29T20:26:21.673Z,9.03
2018-11-29T20:28:49.851Z,8.60
2018-11-29T20:31:17.992Z,8.83
2018-11-29T20:33:46.359Z,9.73
2018-11-29T20:36:15.136Z,8.03
2018-11-29T20:38:43.314Z,7.50
2018-11-29T20:41:11.478Z,8.63
2018-11-29T20:43:39.999Z,9.23
2018-11-29T20:46:08.209Z,6.03
2018-11-29T20:48:36.396Z,11.87
2018-11-29T20:51:04.462Z,8.17
2018-11-29T20:53:38.247Z,7.77
2018-11-29T20:56:08.988Z,12.40
2018-11-29T20:58:37.139Z,11.13
2018-11-29T21:01:06.657Z,9.70
2018-11-29T21:03:35.184Z,10.18
2018-11-29T21:06:03.645Z,9.53
2018-11-29T21:08:32.100Z,10.30
2018-11-29T21:11:00.328Z,10.90
2018-11-29T21:13:28.435Z,12.93
2018-11-29T21:15:57.347Z,11.17
2018-11-29T21:18:26.576Z,13.63
2018-11-29T21:20:54.709Z,10.57
2018-11-29T21:23:22.917Z,12.47
2018-11-29T21:25:51.035Z,9.60
2018-11-29T21:28:19.249Z,12.57
2018-11-29T21:30:48.068Z,13.73
2018-11-29T21:33:17.028Z,11.22
2018-11-29T21:35:45.168Z,14.70
2018-11-29T21:38:16.196Z,11.97
2018-11-29T21:40:50.252Z,8.07
2018-11-29T21:43:18.726Z,8.43
2018-11-29T21:45:47.034Z,7.57
2018-11-29T21:48:15.091Z,7.33
2018-11-29T21:50:43.656Z,8.05
2018-11-29T21:53:11.871Z,11.38
2018-11-29T21:55:39.983Z,9.00
2018-11-29T21:58:08.420Z,8.83
2018-11-29T22:00:36.787Z,7.27
2018-11-29T22:03:04.943Z,10.27
2018-11-29T22:05:33.143Z,6.40
2018-11-29T22:08:01.302Z,7.37
2018-11-29T22:10:29.447Z,7.20
2018-11-29T22:12:58.964Z,5.43
2018-11-29T22:15:27.035Z,10.32
2018-11-29T22:18:14.972Z,6.63
2018-11-29T22:20:43.143Z,5.73
2018-11-29T22:23:11.825Z,7.70
2018-11-29T22:25:41.147Z,10.93
2018-11-29T22:28:09.303Z,9.73
2018-11-29T22:30:37.669Z,7.23
2018-11-29T22:33:06.326Z,6.37
2018-11-29T22:35:34.442Z,6.58
2018-11-29T22:38:02.594Z,9.13
2018-11-29T22:40:31.119Z,7.73
2018-11-29T22:42:59.828Z,8.37
2018-11-29T22:45:28.059Z,7.67
2018-11-29T22:47:56.633Z,6.47
2018-11-29T22:50:25.009Z,7.47
2018-11-29T22:52:53.163Z,9.00
2018-11-29T22:55:21.567Z,7.50
2018-11-29T22:57:50.147Z,7.17
2018-11-29T23:00:19.048Z,8.53
2018-11-29T23:02:48.447Z,5.37
2018-11-29T23:05:16.639Z,6.00
2018-11-29T23:07:44.999Z,8.60
2018-11-29T23:10:13.683Z,6.80
2018-11-29T23:12:42.223Z,9.43
2018-11-29T23:15:11.420Z,6.97
2018-11-29T23:17:39.519Z,7.45
2018-11-29T23:20:09.804Z,7.83
2018-11-29T23:22:38.335Z,8.10
2018-11-29T23:25:09.153Z,6.60
2018-11-29T23:27:37.355Z,5.85
2018-11-29T23:30:14.924Z,6.83
2018-11-29T23:32:43.723Z,7.97
2018-11-29T23:35:12.675Z,6.07
2018-11-29T23:37:40.797Z,6.67
2018-11-29T23:40:15.744Z,7.17
2018-11-29T23:42:44.432Z,6.73
2018-11-29T23:45:13.194Z,7.60
2018-11-29T23:47:41.315Z,5.70
2018-11-29T23:50:19.871Z,5.53
2018-11-29T23:52:48.187Z,5.87
2018-11-29T23:55:17.676Z,7.60
2018-11-29T23:57:46.139Z,5.73
